createdAt,value
2017-06-13T00:00:33.474Z,0
2017-06-13T00:01:14.046Z,0
2017-06-13T00:01:54.627Z,0
2017-06-13T00:02:35.227Z,0
2017-06-13T00:03:15.831Z,0
2017-06-13T00:03:56.421Z,0
2017-06-13T00:04:37.027Z,0
2017-06-13T00:05:17.601Z,0
2017-06-13T00:05:58.190Z,0
2017-06-13T00:06:38.779Z,0
2017-06-13T00:07:19.371Z,0
2017-06-13T00:07:59.960Z,0
2017-06-13T00:08:40.612Z,0
2017-06-13T00:09:21.215Z,0
2017-06-13T00:10:01.822Z,0
2017-06-13T00:10:42.423Z,0
2017-06-13T00:11:23.008Z,0
2017-06-13T00:12:03.598Z,0
2017-06-13T00:12:44.182Z,0
2017-06-13T00:13:24.786Z,0
2017-06-13T00:14:05.367Z,0
2017-06-13T00:14:45.943Z,0
2017-06-13T00:15:26.566Z,0
2017-06-13T00:16:07.161Z,0
2017-06-13T00:16:47.766Z,0
2017-06-13T00:17:28.369Z,0
2017-06-13T00:18:08.963Z,0
2017-06-13T00:18:49.545Z,0
2017-06-13T00:19:30.129Z,0
2017-06-13T00:20:10.722Z,0
2017-06-13T00:20:51.323Z,0
2017-06-13T00:21:31.930Z,0
2017-06-13T00:22:12.541Z,0
2017-06-13T00:22:53.124Z,0
2017-06-13T00:23:33.705Z,0
2017-06-13T00:24:20.862Z,0
2017-06-13T00:25:01.443Z,0
2017-06-13T00:25:42.024Z,0
2017-06-13T00:26:22.610Z,0
2017-06-13T00:27:03.206Z,0
2017-06-13T00:27:43.792Z,0
2017-06-13T00:28:24.409Z,0
2017-06-13T00:29:04.983Z,0
2017-06-13T00:29:45.595Z,0
2017-06-13T00:30:26.177Z,0
2017-06-13T00:31:06.791Z,0
2017-06-13T00:31:47.383Z,0
2017-06-13T00:32:27.952Z,0
2017-06-13T00:33:08.546Z,0
2017-06-13T00:33:49.173Z,0
2017-06-13T00:34:30.018Z,0
2017-06-13T00:35:10.643Z,0
2017-06-13T00:35:51.225Z,0
2017-06-13T00:36:31.836Z,0
2017-06-13T00:37:12.438Z,0
2017-06-13T00:37:53.016Z,0
2017-06-13T00:38:33.622Z,0
2017-06-13T00:39:14.237Z,0
2017-06-13T00:39:54.853Z,0
2017-06-13T00:40:35.487Z,0
2017-06-13T00:41:16.086Z,0
2017-06-13T00:41:56.657Z,0
2017-06-13T00:42:37.241Z,0
2017-06-13T00:43:17.855Z,0
2017-06-13T00:43:58.476Z,0
2017-06-13T00:44:39.082Z,0
2017-06-13T00:45:19.686Z,0
2017-06-13T00:46:00.290Z,0
2017-06-13T00:46:40.905Z,0
2017-06-13T00:47:21.526Z,0
2017-06-13T00:48:02.136Z,0
2017-06-13T00:48:42.741Z,0
2017-06-13T00:49:23.368Z,0
2017-06-13T00:50:04.026Z,0
2017-06-13T00:50:44.658Z,0
2017-06-13T00:51:25.253Z,0
2017-06-13T00:52:05.862Z,0
2017-06-13T00:52:46.466Z,0
2017-06-13T00:53:27.099Z,0
2017-06-13T00:54:07.698Z,0
2017-06-13T00:54:48.342Z,0
2017-06-13T00:55:28.961Z,0
2017-06-13T00:56:09.555Z,0
2017-06-13T00:56:50.182Z,0
2017-06-13T00:57:30.788Z,0
2017-06-13T00:58:11.395Z,0
2017-06-13T00:58:52.050Z,0
2017-06-13T00:59:32.675Z,0
2017-06-13T01:00:13.294Z,0
2017-06-13T01:00:53.910Z,0
2017-06-13T01:01:34.513Z,0
2017-06-13T01:02:15.110Z,0
2017-06-13T01:02:55.743Z,0
2017-06-13T01:03:36.422Z,0
2017-06-13T01:04:17.041Z,0
2017-06-13T01:04:57.631Z,0
2017-06-13T01:05:38.230Z,0
2017-06-13T01:06:18.813Z,0
2017-06-13T01:06:59.405Z,0
2017-06-13T01:07:40.041Z,0
2017-06-13T01:08:20.632Z,0
2017-06-13T01:09:01.452Z,0
2017-06-13T01:09:42.065Z,0
2017-06-13T01:10:22.687Z,0
2017-06-13T01:11:03.297Z,0
2017-06-13T01:11:43.898Z,0
2017-06-13T01:12:24.490Z,0
2017-06-13T01:13:05.074Z,0
2017-06-13T01:13:45.746Z,0
2017-06-13T01:14:26.347Z,0
2017-06-13T01:15:06.929Z,0
2017-06-13T01:15:47.520Z,0
2017-06-13T01:16:28.111Z,0
2017-06-13T01:17:08.725Z,0
2017-06-13T01:17:49.347Z,0
2017-06-13T01:18:29.944Z,0
2017-06-13T01:19:10.642Z,0
2017-06-13T01:19:51.255Z,0
2017-06-13T01:20:31.852Z,0
2017-06-13T01:21:12.454Z,0
2017-06-13T01:21:53.108Z,0
2017-06-13T01:22:33.729Z,0
2017-06-13T01:23:14.327Z,0
2017-06-13T01:23:54.931Z,0
2017-06-13T01:24:35.535Z,0
2017-06-13T01:25:16.136Z,0
2017-06-13T01:25:56.742Z,0
2017-06-13T01:26:37.366Z,0
2017-06-13T01:27:18.009Z,0
2017-06-13T01:27:58.672Z,0
2017-06-13T01:28:39.344Z,0
2017-06-13T01:29:20.030Z,0
2017-06-13T01:30:00.673Z,0
2017-06-13T01:30:41.310Z,0
2017-06-13T01:31:22.006Z,0
2017-06-13T01:32:02.616Z,0
2017-06-13T01:32:43.208Z,0
2017-06-13T01:33:23.862Z,0
2017-06-13T01:34:04.454Z,0
2017-06-13T01:34:45.086Z,0
2017-06-13T01:35:25.682Z,0
2017-06-13T01:36:06.286Z,0
2017-06-13T01:36:46.898Z,0
2017-06-13T01:37:27.514Z,0
2017-06-13T01:38:08.140Z,0
2017-06-13T01:38:48.750Z,0
2017-06-13T01:39:29.347Z,0
2017-06-13T01:40:09.944Z,0
2017-06-13T01:40:50.538Z,0
2017-06-13T01:41:31.134Z,0
2017-06-13T01:42:11.737Z,0
2017-06-13T01:42:52.378Z,0
2017-06-13T01:43:32.984Z,0
2017-06-13T01:44:13.575Z,0
2017-06-13T01:44:54.174Z,0
2017-06-13T01:45:34.779Z,0
2017-06-13T01:46:15.374Z,0
2017-06-13T01:46:55.968Z,0
2017-06-13T01:47:36.546Z,0
2017-06-13T01:48:17.132Z,0
2017-06-13T01:48:57.746Z,0
2017-06-13T01:49:38.347Z,0
2017-06-13T01:50:18.946Z,0
2017-06-13T01:50:59.555Z,0
2017-06-13T01:51:40.143Z,0
2017-06-13T01:52:20.719Z,0
2017-06-13T01:53:01.302Z,0
2017-06-13T01:53:41.884Z,0
2017-06-13T01:54:22.480Z,0
2017-06-13T01:55:03.085Z,0
2017-06-13T01:55:43.685Z,0
2017-06-13T01:56:24.274Z,0
2017-06-13T01:57:04.863Z,0
2017-06-13T01:57:45.511Z,0
2017-06-13T01:58:26.070Z,0
2017-06-13T01:59:06.664Z,0
2017-06-13T01:59:47.278Z,0
2017-06-13T02:00:27.939Z,0
2017-06-13T02:01:08.623Z,0
2017-06-13T02:01:49.239Z,0
2017-06-13T02:02:29.826Z,0
2017-06-13T02:03:10.471Z,0
2017-06-13T02:03:51.102Z,0
2017-06-13T02:04:31.672Z,0
2017-06-13T02:05:12.263Z,0
2017-06-13T02:05:52.840Z,0
2017-06-13T02:06:33.418Z,0
2017-06-13T02:07:14.025Z,0
2017-06-13T02:07:54.641Z,0
2017-06-13T02:08:35.222Z,0
2017-06-13T02:09:15.814Z,0
2017-06-13T02:09:56.392Z,0
2017-06-13T02:10:36.995Z,0
2017-06-13T02:11:17.576Z,0
2017-06-13T02:11:58.175Z,0
2017-06-13T02:12:38.752Z,0
2017-06-13T02:13:19.341Z,0
2017-06-13T02:13:59.944Z,0
2017-06-13T02:14:40.520Z,0
2017-06-13T02:15:21.104Z,0
2017-06-13T02:16:01.702Z,0
2017-06-13T02:16:42.284Z,0
2017-06-13T02:17:22.869Z,0
2017-06-13T02:18:03.453Z,0
2017-06-13T02:18:44.037Z,0
2017-06-13T02:19:24.631Z,0
2017-06-13T02:20:05.226Z,0
2017-06-13T02:20:45.818Z,0
2017-06-13T02:21:26.425Z,0
2017-06-13T02:22:07.007Z,0
2017-06-13T02:22:47.581Z,0
2017-06-13T02:23:28.162Z,0
2017-06-13T02:24:08.742Z,0
2017-06-13T02:24:49.349Z,0
2017-06-13T02:25:29.931Z,0
2017-06-13T02:26:10.518Z,0
2017-06-13T02:26:51.095Z,0
2017-06-13T02:27:31.719Z,0
2017-06-13T02:28:12.307Z,0
2017-06-13T02:28:52.918Z,0
2017-06-13T02:29:33.509Z,0
2017-06-13T02:30:14.106Z,0
2017-06-13T02:30:54.698Z,0
2017-06-13T02:31:35.306Z,0
2017-06-13T02:32:15.886Z,0
2017-06-13T02:32:56.490Z,0
2017-06-13T02:33:37.094Z,0
2017-06-13T02:34:17.716Z,0
2017-06-13T02:34:58.295Z,0
2017-06-13T02:35:38.904Z,0
2017-06-13T02:36:19.492Z,0
2017-06-13T02:37:00.074Z,0
2017-06-13T02:37:40.669Z,0
2017-06-13T02:38:21.259Z,0
2017-06-13T02:39:01.862Z,0
2017-06-13T02:39:42.453Z,0
2017-06-13T02:40:23.043Z,0
2017-06-13T02:41:03.615Z,0
2017-06-13T02:41:44.192Z,0
2017-06-13T02:42:24.774Z,0
2017-06-13T02:43:05.356Z,0
2017-06-13T02:43:45.951Z,0
2017-06-13T02:44:26.527Z,0
2017-06-13T02:45:07.114Z,0
2017-06-13T02:45:47.690Z,0
2017-06-13T02:46:28.299Z,0
2017-06-13T02:47:08.994Z,0
2017-06-13T02:47:49.600Z,0
2017-06-13T02:48:30.209Z,0
2017-06-13T02:49:10.792Z,0
2017-06-13T02:49:51.376Z,0
2017-06-13T02:50:31.972Z,0
2017-06-13T02:51:12.584Z,0
2017-06-13T02:51:53.169Z,0
2017-06-13T02:52:33.766Z,0
2017-06-13T02:53:14.347Z,5
2017-06-13T02:53:54.928Z,5
2017-06-13T02:54:35.512Z,5
2017-06-13T02:55:16.111Z,5
2017-06-13T02:55:56.704Z,5
2017-06-13T02:56:37.300Z,5
2017-06-13T02:57:17.899Z,5
2017-06-13T02:57:58.483Z,5
2017-06-13T02:58:39.081Z,5
2017-06-13T02:59:19.706Z,5
2017-06-13T03:00:00.296Z,5
2017-06-13T03:00:40.970Z,5
2017-06-13T03:01:21.571Z,5
2017-06-13T03:02:02.175Z,10
2017-06-13T03:02:42.789Z,10
2017-06-13T03:03:23.349Z,10
2017-06-13T03:04:03.946Z,10
2017-06-13T03:04:44.563Z,10
2017-06-13T03:05:25.145Z,10
2017-06-13T03:06:05.726Z,10
2017-06-13T03:06:46.321Z,10
2017-06-13T03:07:26.904Z,10
2017-06-13T03:08:07.495Z,10
2017-06-13T03:08:48.079Z,10
2017-06-13T03:09:28.665Z,10
2017-06-13T03:10:09.262Z,15
2017-06-13T03:10:49.872Z,15
2017-06-13T03:11:30.486Z,15
2017-06-13T03:12:11.094Z,15
2017-06-13T03:12:51.667Z,15
2017-06-13T03:13:32.265Z,15
2017-06-13T03:14:12.860Z,15
2017-06-13T03:14:53.485Z,15
2017-06-13T03:15:34.097Z,15
2017-06-13T03:16:14.677Z,15
2017-06-13T03:16:55.270Z,15
2017-06-13T03:17:35.867Z,15
2017-06-13T03:18:16.472Z,15
2017-06-13T03:18:57.048Z,15
2017-06-13T03:19:37.643Z,15
2017-06-13T03:20:18.235Z,15
2017-06-13T03:20:58.848Z,15
2017-06-13T03:21:39.437Z,15
2017-06-13T03:22:20.038Z,15
2017-06-13T03:23:00.638Z,20
2017-06-13T03:23:41.258Z,20
2017-06-13T03:24:21.861Z,20
2017-06-13T03:25:02.511Z,20
2017-06-13T03:25:43.137Z,20
2017-06-13T03:26:23.738Z,20
2017-06-13T03:27:04.327Z,20
2017-06-13T03:27:44.906Z,20
2017-06-13T03:28:25.498Z,20
2017-06-13T03:29:06.089Z,20
2017-06-13T03:29:46.677Z,20
2017-06-13T03:30:27.269Z,20
2017-06-13T03:31:07.862Z,20
2017-06-13T03:31:48.453Z,20
2017-06-13T03:32:29.068Z,20
2017-06-13T03:33:09.649Z,20
2017-06-13T03:33:50.240Z,20
2017-06-13T03:34:30.817Z,20
2017-06-13T03:35:11.407Z,20
2017-06-13T03:35:52.006Z,20
2017-06-13T03:36:32.606Z,20
2017-06-13T03:37:13.198Z,20
2017-06-13T03:37:53.778Z,20
2017-06-13T03:38:34.387Z,20
2017-06-13T03:39:14.954Z,20
2017-06-13T03:39:55.539Z,20
2017-06-13T03:40:36.131Z,20
2017-06-13T03:41:16.796Z,25
2017-06-13T03:41:57.392Z,25
2017-06-13T03:42:37.976Z,25
2017-06-13T03:43:18.562Z,25
2017-06-13T03:43:59.156Z,25
2017-06-13T03:44:39.763Z,25
2017-06-13T03:45:20.373Z,25
2017-06-13T03:46:00.952Z,25
2017-06-13T03:46:41.539Z,25
2017-06-13T03:47:22.126Z,25
2017-06-13T03:48:02.704Z,30
2017-06-13T03:48:43.288Z,30
2017-06-13T03:49:23.872Z,30
2017-06-13T03:50:04.461Z,30
2017-06-13T03:50:45.063Z,30
2017-06-13T03:51:25.666Z,35
2017-06-13T03:52:06.251Z,35
2017-06-13T03:52:46.829Z,35
2017-06-13T03:53:27.417Z,35
2017-06-13T03:54:07.990Z,35
2017-06-13T03:54:48.574Z,35
2017-06-13T03:55:29.166Z,35
2017-06-13T03:56:09.746Z,35
2017-06-13T03:56:50.339Z,35
2017-06-13T03:57:30.943Z,35
2017-06-13T03:58:11.538Z,35
2017-06-13T03:58:52.117Z,35
2017-06-13T03:59:32.748Z,35
2017-06-13T04:00:13.382Z,35
2017-06-13T04:00:53.971Z,35
2017-06-13T04:01:34.546Z,35
2017-06-13T04:02:15.133Z,35
2017-06-13T04:02:55.721Z,40
2017-06-13T04:03:36.330Z,40
2017-06-13T04:04:16.912Z,40
2017-06-13T04:04:57.483Z,40
2017-06-13T04:05:38.095Z,40
2017-06-13T04:06:18.667Z,40
2017-06-13T04:06:59.270Z,40
2017-06-13T04:07:39.881Z,40
2017-06-13T04:08:20.480Z,40
2017-06-13T04:09:01.055Z,40
2017-06-13T04:09:41.644Z,40
2017-06-13T04:10:22.240Z,40
2017-06-13T04:11:02.813Z,40
2017-06-13T04:11:43.395Z,45
2017-06-13T04:12:23.990Z,45
2017-06-13T04:13:04.578Z,45
2017-06-13T04:13:45.170Z,45
2017-06-13T04:14:25.894Z,45
2017-06-13T04:15:06.544Z,45
2017-06-13T04:15:47.159Z,45
2017-06-13T04:16:27.751Z,45
2017-06-13T04:17:08.493Z,50
2017-06-13T04:17:49.113Z,50
2017-06-13T04:18:30.032Z,50
2017-06-13T04:19:10.888Z,50
2017-06-13T04:19:51.467Z,50
2017-06-13T04:20:32.060Z,50
2017-06-13T04:21:12.640Z,50
2017-06-13T04:21:53.243Z,50
2017-06-13T04:22:33.957Z,50
2017-06-13T04:23:14.528Z,50
2017-06-13T04:23:55.118Z,50
2017-06-13T04:24:35.721Z,50
2017-06-13T04:25:16.300Z,50
2017-06-13T04:25:56.884Z,55
2017-06-13T04:26:37.489Z,55
2017-06-13T04:27:18.206Z,55
2017-06-13T04:27:58.731Z,55
2017-06-13T04:28:39.306Z,55
2017-06-13T04:29:19.882Z,55
2017-06-13T04:30:00.516Z,55
2017-06-13T04:30:41.128Z,55
2017-06-13T04:31:21.712Z,60
2017-06-13T04:32:02.316Z,60
2017-06-13T04:32:42.907Z,60
2017-06-13T04:33:23.485Z,60
2017-06-13T04:34:04.080Z,60
2017-06-13T04:34:44.664Z,60
2017-06-13T04:35:25.248Z,60
2017-06-13T04:36:05.834Z,60
2017-06-13T04:36:46.430Z,60
2017-06-13T04:37:27.016Z,60
2017-06-13T04:38:07.589Z,60
2017-06-13T04:38:48.180Z,60
2017-06-13T04:39:28.762Z,65
2017-06-13T04:40:09.345Z,65
2017-06-13T04:40:49.956Z,65
2017-06-13T04:41:30.552Z,65
2017-06-13T04:42:11.183Z,65
2017-06-13T04:42:51.787Z,65
2017-06-13T04:43:32.388Z,65
2017-06-13T04:44:12.968Z,70
2017-06-13T04:44:53.548Z,70
2017-06-13T04:45:34.130Z,70
2017-06-13T04:46:14.709Z,70
2017-06-13T04:46:55.328Z,75
2017-06-13T04:47:35.907Z,75
2017-06-13T04:48:16.498Z,75
2017-06-13T04:48:57.117Z,75
2017-06-13T04:49:37.700Z,75
2017-06-13T04:50:18.287Z,80
2017-06-13T04:50:58.934Z,80
2017-06-13T04:51:39.531Z,80
2017-06-13T04:52:20.124Z,85
2017-06-13T04:53:00.694Z,85
2017-06-13T04:53:41.278Z,85
2017-06-13T04:54:21.863Z,90
2017-06-13T04:55:02.469Z,95
2017-06-13T04:55:43.054Z,90
2017-06-13T04:56:23.676Z,95
2017-06-13T04:57:04.261Z,100
2017-06-13T04:57:44.961Z,100
2017-06-13T04:58:25.549Z,105
2017-06-13T04:59:06.173Z,115
2017-06-13T04:59:46.802Z,125
2017-06-13T05:00:27.401Z,140
2017-06-13T05:01:08.026Z,155
2017-06-13T05:01:48.653Z,210
2017-06-13T05:02:29.238Z,360
2017-06-13T05:03:09.826Z,655
2017-06-13T05:03:50.433Z,865
2017-06-13T05:04:31.022Z,1055
2017-06-13T05:05:11.598Z,985
2017-06-13T05:05:52.197Z,925
2017-06-13T05:06:32.807Z,610
2017-06-13T05:07:13.382Z,615
2017-06-13T05:07:54.020Z,475
2017-06-13T05:08:34.575Z,260
2017-06-13T05:09:15.183Z,205
2017-06-13T05:09:55.787Z,195
2017-06-13T05:10:36.381Z,195
2017-06-13T05:11:16.975Z,205
2017-06-13T05:11:57.557Z,235
2017-06-13T05:12:38.140Z,235
2017-06-13T05:13:18.744Z,210
2017-06-13T05:13:59.335Z,190
2017-06-13T05:14:39.930Z,185
2017-06-13T05:15:20.534Z,185
2017-06-13T05:16:01.131Z,215
2017-06-13T05:16:41.719Z,240
2017-06-13T05:17:22.299Z,255
2017-06-13T05:18:02.915Z,320
2017-06-13T05:18:43.496Z,330
2017-06-13T05:19:24.134Z,440
2017-06-13T05:20:04.743Z,565
2017-06-13T05:20:45.465Z,900
2017-06-13T05:21:26.064Z,970
2017-06-13T05:22:06.644Z,710
2017-06-13T05:22:47.227Z,550
2017-06-13T05:23:27.830Z,265
2017-06-13T05:24:08.444Z,395
2017-06-13T05:24:49.124Z,280
2017-06-13T05:25:29.689Z,255
2017-06-13T05:26:10.287Z,265
2017-06-13T05:26:50.876Z,300
2017-06-13T05:27:31.459Z,295
2017-06-13T05:28:12.059Z,375
2017-06-13T05:28:52.638Z,265
2017-06-13T05:29:33.288Z,235
2017-06-13T05:30:13.877Z,220
2017-06-13T05:30:54.511Z,235
2017-06-13T05:31:35.163Z,250
2017-06-13T05:32:15.790Z,215
2017-06-13T05:32:56.421Z,190
2017-06-13T05:33:37.060Z,220
2017-06-13T05:34:17.665Z,350
2017-06-13T05:34:58.258Z,655
2017-06-13T05:35:38.871Z,1140
2017-06-13T05:36:19.468Z,1065
2017-06-13T05:37:00.089Z,485
2017-06-13T05:37:40.673Z,480
2017-06-13T05:38:21.256Z,385
2017-06-13T05:39:01.835Z,315
2017-06-13T05:39:42.422Z,275
2017-06-13T05:40:23.020Z,145
2017-06-13T05:41:03.633Z,170
2017-06-13T05:41:44.228Z,165
2017-06-13T05:42:24.909Z,180
2017-06-13T05:43:05.492Z,180
2017-06-13T05:43:46.174Z,160
2017-06-13T05:44:26.753Z,145
2017-06-13T05:45:07.348Z,185
2017-06-13T05:45:47.935Z,220
2017-06-13T05:46:28.686Z,230
2017-06-13T05:47:09.349Z,340
2017-06-13T05:47:49.964Z,400
2017-06-13T05:48:30.557Z,420
2017-06-13T05:49:11.215Z,425
2017-06-13T05:49:56.463Z,375
2017-06-13T05:50:39.264Z,330
2017-06-13T05:51:22.748Z,345
2017-06-13T05:52:10.019Z,380
2017-06-13T05:52:51.555Z,455
2017-06-13T05:53:32.403Z,275
2017-06-13T05:54:14.548Z,195
2017-06-13T05:55:03.987Z,145
2017-06-13T05:55:51.779Z,140
2017-06-13T05:56:37.379Z,110
2017-06-13T05:57:20.238Z,120
2017-06-13T05:58:01.004Z,130
2017-06-13T05:58:41.621Z,165
2017-06-13T05:59:22.439Z,900
2017-06-13T06:00:03.013Z,225
2017-06-13T06:00:44.601Z,225
2017-06-13T06:01:26.789Z,1130
2017-06-13T06:02:07.661Z,100
2017-06-13T06:02:48.280Z,85
2017-06-13T06:03:31.117Z,95
2017-06-13T06:04:11.718Z,105
2017-06-13T06:04:52.360Z,115
2017-06-13T06:05:32.949Z,105
2017-06-13T06:06:13.579Z,100
2017-06-13T06:06:54.159Z,120
2017-06-13T06:07:34.762Z,100
2017-06-13T06:08:15.352Z,85
2017-06-13T06:08:55.945Z,75
2017-06-13T06:09:36.538Z,75
2017-06-13T06:10:17.118Z,80
2017-06-13T06:10:57.756Z,120
2017-06-13T06:11:38.377Z,340
2017-06-13T06:12:18.968Z,365
2017-06-13T06:12:59.596Z,170
2017-06-13T06:13:40.180Z,125
2017-06-13T06:14:20.759Z,140
2017-06-13T06:15:01.357Z,190
2017-06-13T06:15:42.027Z,210
2017-06-13T06:16:22.628Z,165
2017-06-13T06:17:07.723Z,155
2017-06-13T06:17:52.900Z,175
2017-06-13T06:18:33.492Z,220
2017-06-13T06:19:14.092Z,340
2017-06-13T06:19:54.708Z,345
2017-06-13T06:20:35.307Z,375
2017-06-13T06:21:15.906Z,220
2017-06-13T06:21:58.336Z,265
2017-06-13T06:22:38.922Z,240
2017-06-13T06:23:19.510Z,195
2017-06-13T06:24:00.127Z,180
2017-06-13T06:24:40.732Z,180
2017-06-13T06:25:21.945Z,165
2017-06-13T06:26:02.759Z,145
2017-06-13T06:26:43.391Z,125
2017-06-13T06:27:24.331Z,110
2017-06-13T06:28:07.969Z,100
2017-06-13T06:28:54.690Z,100
2017-06-13T06:29:35.326Z,105
2017-06-13T06:30:15.978Z,110
2017-06-13T06:30:56.560Z,110
2017-06-13T06:31:37.155Z,115
2017-06-13T06:32:17.746Z,110
2017-06-13T06:32:58.368Z,110
2017-06-13T06:33:38.975Z,115
2017-06-13T06:34:19.617Z,110
2017-06-13T06:35:00.373Z,125
2017-06-13T06:35:41.010Z,150
2017-06-13T06:36:21.595Z,150
2017-06-13T06:37:04.035Z,135
2017-06-13T06:37:44.630Z,125
2017-06-13T06:38:26.425Z,140
2017-06-13T06:39:07.029Z,160
2017-06-13T06:39:47.609Z,205
2017-06-13T06:40:28.790Z,255
2017-06-13T06:41:09.491Z,320
2017-06-13T06:41:50.314Z,310
2017-06-13T06:42:30.916Z,255
2017-06-13T06:43:11.502Z,225
2017-06-13T06:43:52.116Z,220
2017-06-13T06:44:32.851Z,230
2017-06-13T06:45:13.441Z,410
2017-06-13T06:45:54.066Z,305
2017-06-13T06:46:34.667Z,220
2017-06-13T06:47:15.309Z,175
2017-06-13T06:47:55.891Z,160
2017-06-13T06:48:36.490Z,150
2017-06-13T06:49:17.082Z,170
2017-06-13T06:49:57.721Z,235
2017-06-13T06:50:38.327Z,320
2017-06-13T06:51:18.930Z,260
2017-06-13T06:51:59.529Z,230
2017-06-13T06:52:40.125Z,180
2017-06-13T06:53:20.736Z,160
2017-06-13T06:54:01.389Z,140
2017-06-13T06:54:41.987Z,115
2017-06-13T06:55:22.725Z,105
2017-06-13T06:56:03.318Z,100
2017-06-13T06:56:43.944Z,100
2017-06-13T06:57:24.530Z,100
2017-06-13T06:58:05.130Z,110
2017-06-13T06:58:45.873Z,130
2017-06-13T06:59:26.452Z,145
2017-06-13T07:00:07.067Z,155
2017-06-13T07:00:47.714Z,195
2017-06-13T07:01:28.294Z,150
2017-06-13T07:02:08.933Z,140
2017-06-13T07:02:49.555Z,125
2017-06-13T07:03:30.171Z,110
2017-06-13T07:04:10.760Z,100
2017-06-13T07:04:51.372Z,105
2017-06-13T07:05:31.952Z,95
2017-06-13T07:06:12.559Z,90
2017-06-13T07:06:53.201Z,95
2017-06-13T07:07:33.801Z,90
2017-06-13T07:08:14.385Z,100
2017-06-13T07:08:54.990Z,155
2017-06-13T07:09:35.606Z,425
2017-06-13T07:10:16.207Z,370
2017-06-13T07:10:59.420Z,190
2017-06-13T07:11:40.033Z,180
2017-06-13T07:12:20.620Z,120
2017-06-13T07:13:01.237Z,95
2017-06-13T07:13:41.956Z,95
2017-06-13T07:14:22.607Z,165
2017-06-13T07:15:03.268Z,355
2017-06-13T07:15:43.865Z,470
2017-06-13T07:16:24.477Z,365
2017-06-13T07:17:05.076Z,445
2017-06-13T07:17:45.657Z,215
2017-06-13T07:18:26.244Z,385
2017-06-13T07:19:06.836Z,435
2017-06-13T07:19:47.447Z,475
2017-06-13T07:20:28.124Z,520
2017-06-13T07:21:08.731Z,510
2017-06-13T07:21:49.327Z,525
2017-06-13T07:22:29.927Z,525
2017-06-13T07:23:10.532Z,550
2017-06-13T07:23:51.273Z,510
2017-06-13T07:24:35.555Z,505
2017-06-13T07:25:18.945Z,600
2017-06-13T07:25:59.592Z,625
2017-06-13T07:26:43.377Z,650
2017-06-13T07:27:23.979Z,540
2017-06-13T07:28:04.698Z,215
2017-06-13T07:28:50.111Z,155
2017-06-13T07:29:43.387Z,145
2017-06-13T07:30:23.971Z,175
2017-06-13T07:31:04.603Z,220
2017-06-13T07:31:45.223Z,170
2017-06-13T07:32:25.840Z,145
2017-06-13T07:33:06.495Z,130
2017-06-13T07:33:47.096Z,120
2017-06-13T07:34:27.688Z,125
2017-06-13T07:35:08.274Z,140
2017-06-13T07:35:48.881Z,155
2017-06-13T07:36:29.490Z,165
2017-06-13T07:37:10.094Z,180
2017-06-13T07:37:50.678Z,540
2017-06-13T07:38:31.276Z,530
2017-06-13T07:39:11.851Z,430
2017-06-13T07:39:52.459Z,155
2017-06-13T07:40:33.052Z,125
2017-06-13T07:41:13.642Z,105
2017-06-13T07:41:54.277Z,85
2017-06-13T07:42:34.926Z,65
2017-06-13T07:43:15.534Z,50
2017-06-13T07:43:56.122Z,35
2017-06-13T07:44:36.745Z,30
2017-06-13T07:45:17.365Z,25
2017-06-13T07:45:57.985Z,20
2017-06-13T07:46:38.569Z,20
2017-06-13T07:47:19.159Z,20
2017-06-13T07:47:59.799Z,20
2017-06-13T07:48:40.393Z,20
2017-06-13T07:49:21.005Z,25
2017-06-13T07:50:01.592Z,30
2017-06-13T07:50:42.177Z,30
2017-06-13T07:51:22.758Z,35
2017-06-13T07:52:03.342Z,50
2017-06-13T07:52:43.991Z,70
2017-06-13T07:53:24.594Z,85
2017-06-13T07:54:05.190Z,110
2017-06-13T07:54:45.777Z,140
2017-06-13T07:55:26.370Z,130
2017-06-13T07:56:06.950Z,140
2017-06-13T07:56:47.532Z,160
2017-06-13T07:57:28.122Z,340
2017-06-13T07:58:08.721Z,545
2017-06-13T07:58:49.294Z,435
2017-06-13T07:59:29.884Z,400
2017-06-13T08:00:10.465Z,510
2017-06-13T08:00:51.057Z,495
2017-06-13T08:01:31.641Z,345
2017-06-13T08:02:12.229Z,355
2017-06-13T08:02:52.821Z,295
2017-06-13T08:03:33.479Z,230
2017-06-13T08:04:14.124Z,190
2017-06-13T08:04:54.832Z,160
2017-06-13T08:05:35.461Z,130
2017-06-13T08:06:16.048Z,110
2017-06-13T08:06:56.639Z,95
2017-06-13T08:07:37.217Z,85
2017-06-13T08:08:17.839Z,85
2017-06-13T08:08:58.432Z,75
2017-06-13T08:09:39.024Z,75
2017-06-13T08:10:19.609Z,75
2017-06-13T08:11:00.192Z,85
2017-06-13T08:11:40.813Z,210
2017-06-13T08:12:21.404Z,205
2017-06-13T08:13:02.022Z,325
2017-06-13T08:13:42.570Z,330
2017-06-13T08:14:23.198Z,265
2017-06-13T08:15:03.772Z,265
2017-06-13T08:15:44.356Z,265
2017-06-13T08:16:24.945Z,270
2017-06-13T08:17:05.534Z,260
2017-06-13T08:17:46.113Z,260
2017-06-13T08:18:26.695Z,240
2017-06-13T08:19:07.272Z,235
2017-06-13T08:19:47.855Z,230
2017-06-13T08:20:28.447Z,230
2017-06-13T08:21:09.028Z,235
2017-06-13T08:21:49.634Z,205
2017-06-13T08:22:30.214Z,165
2017-06-13T08:23:10.810Z,140
2017-06-13T08:23:51.402Z,120
2017-06-13T08:24:31.984Z,105
2017-06-13T08:25:12.570Z,95
2017-06-13T08:25:53.170Z,90
2017-06-13T08:26:33.768Z,95
2017-06-13T08:27:14.362Z,100
2017-06-13T08:27:54.966Z,115
2017-06-13T08:28:35.560Z,120
2017-06-13T08:29:16.146Z,130
2017-06-13T08:29:56.739Z,135
2017-06-13T08:30:37.361Z,135
2017-06-13T08:31:17.938Z,180
2017-06-13T08:31:58.553Z,135
2017-06-13T08:32:39.169Z,140
2017-06-13T08:33:19.754Z,160
2017-06-13T08:34:00.352Z,150
2017-06-13T08:34:40.949Z,150
2017-06-13T08:35:21.532Z,155
2017-06-13T08:36:02.140Z,155
2017-06-13T08:36:42.753Z,140
2017-06-13T08:37:23.330Z,120
2017-06-13T08:38:03.965Z,110
2017-06-13T08:38:44.512Z,105
2017-06-13T08:39:25.104Z,105
2017-06-13T08:40:05.709Z,105
2017-06-13T08:40:46.308Z,95
2017-06-13T08:41:26.892Z,90
2017-06-13T08:42:07.476Z,85
2017-06-13T08:42:48.104Z,80
2017-06-13T08:43:28.693Z,85
2017-06-13T08:44:09.266Z,90
2017-06-13T08:44:49.873Z,95
2017-06-13T08:45:30.452Z,95
2017-06-13T08:46:11.037Z,95
2017-06-13T08:46:51.627Z,95
2017-06-13T08:47:32.261Z,90
2017-06-13T08:48:12.903Z,90
2017-06-13T08:48:53.500Z,90
2017-06-13T08:49:34.092Z,95
2017-06-13T08:50:14.700Z,95
2017-06-13T08:50:55.297Z,95
2017-06-13T08:51:35.901Z,95
2017-06-13T08:52:16.511Z,100
2017-06-13T08:52:57.107Z,95
2017-06-13T08:53:37.697Z,90
2017-06-13T08:54:18.288Z,80
2017-06-13T08:54:58.886Z,75
2017-06-13T08:55:39.485Z,70
2017-06-13T08:56:20.062Z,70
2017-06-13T08:57:00.648Z,70
2017-06-13T08:57:41.232Z,65
2017-06-13T08:58:21.826Z,60
2017-06-13T08:59:02.417Z,60
2017-06-13T08:59:43.069Z,60
2017-06-13T09:00:23.785Z,65
2017-06-13T09:01:04.393Z,65
2017-06-13T09:01:44.983Z,60
2017-06-13T09:02:25.570Z,60
2017-06-13T09:03:06.211Z,65
2017-06-13T09:03:46.928Z,70
2017-06-13T09:04:27.632Z,75
2017-06-13T09:05:08.226Z,75
2017-06-13T09:05:48.879Z,80
2017-06-13T09:06:29.476Z,85
2017-06-13T09:07:10.072Z,85
2017-06-13T09:07:50.715Z,85
2017-06-13T09:08:31.250Z,95
2017-06-13T09:09:11.844Z,95
2017-06-13T09:09:52.437Z,85
2017-06-13T09:10:33.040Z,80
2017-06-13T09:11:13.631Z,70
2017-06-13T09:11:54.245Z,60
2017-06-13T09:12:34.857Z,55
2017-06-13T09:13:15.435Z,55
2017-06-13T09:13:56.034Z,55
2017-06-13T09:14:36.628Z,50
2017-06-13T09:15:17.585Z,45
2017-06-13T09:15:58.173Z,45
2017-06-13T09:16:38.811Z,50
2017-06-13T09:17:19.455Z,55
2017-06-13T09:18:00.036Z,60
2017-06-13T09:18:40.678Z,70
2017-06-13T09:19:23.333Z,80
2017-06-13T09:20:03.984Z,95
2017-06-13T09:20:44.630Z,115
2017-06-13T09:21:25.213Z,150
2017-06-13T09:22:05.816Z,145
2017-06-13T09:22:46.397Z,150
2017-06-13T09:23:26.990Z,165
2017-06-13T09:24:07.594Z,170
2017-06-13T09:24:48.194Z,170
2017-06-13T09:25:28.782Z,175
2017-06-13T09:26:09.387Z,185
2017-06-13T09:26:50.041Z,190
2017-06-13T09:27:30.631Z,190
2017-06-13T09:28:11.221Z,185
2017-06-13T09:28:51.818Z,185
2017-06-13T09:29:32.435Z,185
2017-06-13T09:30:13.048Z,180
2017-06-13T09:30:53.648Z,185
2017-06-13T09:31:34.279Z,175
2017-06-13T09:32:14.852Z,180
2017-06-13T09:32:55.444Z,175
2017-06-13T09:33:36.041Z,180
2017-06-13T09:34:16.666Z,185
2017-06-13T09:34:57.263Z,195
2017-06-13T09:35:37.912Z,225
2017-06-13T09:36:18.505Z,220
2017-06-13T09:36:59.111Z,230
2017-06-13T09:37:39.693Z,235
2017-06-13T09:38:20.282Z,235
2017-06-13T09:39:00.856Z,235
2017-06-13T09:39:41.489Z,230